Time;durP1;ratioP1;P1;durP2;ratioP2;P2;SDS_P1;SDS_P2;PMS_P1;PMS_P2;Temp;Humidity;BMP_temperature;BMP_pressure;BME280_temperature;BME280_humidity;BME280_pressure;Samples;Min_cycle;Max_cycle;Signal;HPM_P1;HPM_P2
2022/05/12 00:00:57;;;;;;;0.95;0.93;;;12.90;99.90;;;;;;5028223;28;20954;-76
2022/05/12 00:03:24;;;;;;;1.33;0.98;;;12.80;99.90;;;;;;5023015;28;20112;-76
2022/05/12 00:05:50;;;;;;;10.00;1.20;;;12.70;99.90;;;;;;5029795;28;20064;-76
2022/05/12 00:08:17;;;;;;;3.03;1.00;;;12.60;99.90;;;;;;5028320;28;20053;-76
2022/05/12 00:10:43;;;;;;;6.53;1.33;;;12.70;99.90;;;;;;5030460;28;20052;-75
2022/05/12 00:13:10;;;;;;;2.17;0.98;;;12.60;99.90;;;;;;5027024;28;20378;-78
2022/05/12 00:15:36;;;;;;;1.65;1.17;;;12.50;99.90;;;;;;5030123;28;20053;-76
2022/05/12 00:18:04;;;;;;;2.42;0.98;;;12.60;99.90;;;;;;5027971;28;20115;-75
2022/05/12 00:20:30;;;;;;;3.35;0.90;;;12.50;99.90;;;;;;5025855;28;20128;-76
2022/05/12 00:22:57;;;;;;;2.63;1.73;;;12.40;99.90;;;;;;5029560;28;20053;-76
2022/05/12 00:25:23;;;;;;;6.22;1.55;;;12.40;99.90;;;;;;5017344;28;20052;-76
2022/05/12 00:27:50;;;;;;;4.38;1.45;;;12.30;99.90;;;;;;5027667;28;20492;-76
2022/05/12 00:30:16;;;;;;;3.42;1.33;;;12.40;99.90;;;;;;5016386;28;20049;-76
2022/05/12 00:32:43;;;;;;;2.38;1.92;;;12.40;99.90;;;;;;5014727;28;20046;-75
2022/05/12 00:35:09;;;;;;;5.88;2.58;;;12.40;99.90;;;;;;5028059;28;20053;-76
2022/05/12 00:37:36;;;;;;;4.60;1.90;;;12.30;99.90;;;;;;5022859;28;20530;-75
2022/05/12 00:40:02;;;;;;;8.93;2.28;;;12.30;99.90;;;;;;5028120;28;20082;-77
2022/05/12 00:42:29;;;;;;;6.72;2.42;;;12.40;99.90;;;;;;5025063;28;20053;-76
2022/05/12 00:44:55;;;;;;;4.40;2.88;;;12.30;99.90;;;;;;5023324;28;20049;-75
2022/05/12 00:47:22;;;;;;;4.75;2.10;;;12.20;99.90;;;;;;5030041;28;20401;-76
2022/05/12 00:49:48;;;;;;;4.03;2.10;;;12.20;99.90;;;;;;5025686;28;20496;-76
2022/05/12 00:52:15;;;;;;;5.18;1.73;;;12.20;99.90;;;;;;5020006;28;20438;-76
2022/05/12 00:54:41;;;;;;;7.28;1.88;;;12.30;99.90;;;;;;5025350;28;20095;-76
2022/05/12 00:57:08;;;;;;;6.22;1.83;;;12.20;99.90;;;;;;5025913;28;20056;-78
2022/05/12 00:59:34;;;;;;;2.03;1.45;;;12.20;99.90;;;;;;5023308;28;20050;-76
2022/05/12 01:02:01;;;;;;;5.65;2.40;;;12.10;99.90;;;;;;5025288;28;20054;-76
2022/05/12 01:04:29;;;;;;;5.82;1.67;;;12.10;99.90;;;;;;5024031;28;20374;-78
2022/05/12 01:06:55;;;;;;;4.25;2.17;;;12.10;99.90;;;;;;5023097;28;20049;-76
2022/05/12 01:09:22;;;;;;;2.80;1.40;;;12.10;99.90;;;;;;5015670;28;20053;-76
2022/05/12 01:11:49;;;;;;;2.70;1.80;;;11.90;99.90;;;;;;5026446;28;20459;-76
2022/05/12 01:14:15;;;;;;;3.72;1.45;;;11.90;99.90;;;;;;5027156;28;20436;-79
2022/05/12 01:16:43;;;;;;;5.20;1.70;;;11.90;99.90;;;;;;5033249;28;20116;-76
2022/05/12 01:19:12;;;;;;;3.75;1.30;;;11.80;99.90;;;;;;5029001;28;20050;-76
2022/05/12 01:21:38;;;;;;;6.57;1.88;;;11.80;99.90;;;;;;5020467;28;20048;-77
2022/05/12 01:24:05;;;;;;;7.07;1.63;;;11.80;99.90;;;;;;5027638;28;20402;-77
2022/05/12 01:26:31;;;;;;;2.60;2.00;;;11.70;99.90;;;;;;5018837;28;20057;-80
2022/05/12 01:28:58;;;;;;;5.05;1.63;;;11.70;99.90;;;;;;5023938;28;20488;-76
2022/05/12 01:31:24;;;;;;;3.47;1.65;;;11.60;99.90;;;;;;5032882;28;20053;-77
2022/05/12 01:33:51;;;;;;;7.47;1.70;;;11.60;99.90;;;;;;5017228;28;20054;-77
2022/05/12 01:36:18;;;;;;;4.85;1.52;;;11.60;99.90;;;;;;5025641;28;20087;-80
2022/05/12 01:38:44;;;;;;;4.90;2.05;;;11.60;99.90;;;;;;5026589;28;20045;-77
2022/05/12 01:41:11;;;;;;;2.05;0.98;;;11.60;99.90;;;;;;5023421;28;20050;-77
2022/05/12 01:43:37;;;;;;;3.20;0.95;;;11.60;99.90;;;;;;5032512;28;20121;-77
2022/05/12 01:46:04;;;;;;;2.90;1.08;;;11.50;99.90;;;;;;5025320;28;20069;-77
2022/05/12 01:48:30;;;;;;;4.07;1.45;;;11.40;99.90;;;;;;5017201;28;20424;-79
2022/05/12 01:50:57;;;;;;;2.53;0.85;;;11.30;99.90;;;;;;5024901;28;20045;-77
2022/05/12 01:53:23;;;;;;;5.43;1.33;;;11.40;99.90;;;;;;5030386;28;20107;-77
2022/05/12 01:55:50;;;;;;;2.08;1.00;;;11.40;99.90;;;;;;5017312;28;20054;-77
2022/05/12 01:58:16;;;;;;;3.10;1.65;;;11.30;99.90;;;;;;5029134;28;20531;-76
2022/05/12 02:00:43;;;;;;;3.65;1.45;;;11.30;99.90;;;;;;5032581;28;20095;-77
2022/05/12 02:03:09;;;;;;;1.55;1.15;;;11.30;99.90;;;;;;5029979;28;20046;-77
2022/05/12 02:05:36;;;;;;;6.88;1.42;;;11.20;99.90;;;;;;5029225;28;20054;-77
2022/05/12 02:08:02;;;;;;;2.67;1.10;;;11.20;99.90;;;;;;5021415;28;20120;-78
2022/05/12 02:10:29;;;;;;;7.78;1.58;;;11.20;99.90;;;;;;5031246;28;20054;-77
2022/05/12 02:12:55;;;;;;;2.70;1.42;;;11.20;99.90;;;;;;5031264;28;20053;-77
2022/05/12 02:15:22;;;;;;;4.78;1.00;;;11.20;99.90;;;;;;5031999;28;20099;-81
2022/05/12 02:17:49;;;;;;;1.90;1.17;;;11.20;99.90;;;;;;5032987;28;20133;-81
2022/05/12 02:20:16;;;;;;;1.50;1.27;;;11.20;99.90;;;;;;5026818;28;20499;-78
2022/05/12 02:22:42;;;;;;;3.80;1.42;;;11.20;99.90;;;;;;5022630;28;20042;-77
2022/05/12 02:25:09;;;;;;;2.47;0.80;;;11.20;99.90;;;;;;5023707;28;20049;-77
2022/05/12 02:27:35;;;;;;;3.25;1.17;;;11.20;99.90;;;;;;5030907;28;20079;-77
2022/05/12 02:30:02;;;;;;;4.95;1.30;;;11.20;99.90;;;;;;5027512;28;20049;-77
2022/05/12 02:32:28;;;;;;;3.80;0.88;;;11.10;99.90;;;;;;5014396;28;20046;-77
2022/05/12 02:34:55;;;;;;;11.00;1.67;;;11.10;99.90;;;;;;5030334;28;20045;-76
2022/05/12 02:37:21;;;;;;;3.03;1.55;;;11.00;99.90;;;;;;5026879;28;20456;-79
2022/05/12 02:39:48;;;;;;;4.20;1.50;;;11.00;99.90;;;;;;5028545;28;20049;-77
2022/05/12 02:42:15;;;;;;;3.67;1.02;;;11.00;99.90;;;;;;5023894;28;20493;-76
2022/05/12 02:44:41;;;;;;;3.67;1.67;;;11.00;99.90;;;;;;5029072;28;20057;-76
2022/05/12 02:47:08;;;;;;;5.90;1.88;;;11.00;99.90;;;;;;5018240;28;20095;-77
2022/05/12 02:49:34;;;;;;;3.10;1.85;;;11.00;99.90;;;;;;5022372;28;20446;-77
2022/05/12 02:52:01;;;;;;;9.30;2.80;;;11.00;99.90;;;;;;5032737;28;20071;-77
2022/05/12 02:54:27;;;;;;;5.13;2.08;;;11.00;99.90;;;;;;5020815;28;20054;-77
2022/05/12 02:56:55;;;;;;;4.45;1.55;;;10.90;99.90;;;;;;5028074;28;20052;-76
2022/05/12 02:59:22;;;;;;;5.88;2.42;;;11.00;99.90;;;;;;5025330;28;20093;-76
2022/05/12 03:01:48;;;;;;;6.63;1.63;;;10.90;99.90;;;;;;5025890;28;20053;-77
2022/05/12 03:04:15;;;;;;;3.88;1.75;;;10.80;99.90;;;;;;5031691;28;20046;-77
2022/05/12 03:06:42;;;;;;;7.03;2.53;;;10.80;99.90;;;;;;5029358;28;20060;-76
2022/05/12 03:09:09;;;;;;;5.53;1.73;;;10.80;99.90;;;;;;5025801;28;20057;-76
2022/05/12 03:11:35;;;;;;;2.88;1.67;;;10.70;99.90;;;;;;5026906;28;20496;-77
2022/05/12 03:14:03;;;;;;;3.10;2.10;;;10.70;99.90;;;;;;5026136;28;20061;-77
2022/05/12 03:16:29;;;;;;;2.45;2.05;;;10.70;99.90;;;;;;5020309;28;20547;-77
2022/05/12 03:18:56;;;;;;;5.70;1.58;;;10.60;99.90;;;;;;5023038;28;20183;-77
2022/05/12 03:21:23;;;;;;;4.15;2.03;;;10.60;99.90;;;;;;5020543;28;20054;-77
2022/05/12 03:23:49;;;;;;;5.72;1.98;;;10.60;99.90;;;;;;5027754;28;20050;-77
2022/05/12 03:26:16;;;;;;;3.70;2.10;;;10.50;99.90;;;;;;5020532;28;20081;-76
2022/05/12 03:28:42;;;;;;;4.80;2.53;;;10.50;99.90;;;;;;5030282;28;20057;-77
2022/05/12 03:31:09;;;;;;;8.23;2.88;;;10.50;99.90;;;;;;5023906;28;20165;-78
2022/05/12 03:33:36;;;;;;;7.35;2.13;;;10.50;99.90;;;;;;5020683;28;20056;-78
2022/05/12 03:36:02;;;;;;;4.55;2.28;;;10.40;99.90;;;;;;5027023;28;20068;-77
2022/05/12 03:38:29;;;;;;;7.53;2.25;;;10.40;99.90;;;;;;5017986;28;20423;-80
2022/05/12 03:40:55;;;;;;;7.93;3.20;;;10.40;99.90;;;;;;5030591;28;20535;-77
2022/05/12 03:46:06;;;;;;;11.25;3.13;;;10.30;99.90;;;;;;5022730;28;20060;-77
2022/05/12 03:48:32;;;;;;;5.25;2.75;;;10.30;99.90;;;;;;5023585;28;20058;-77
2022/05/12 03:50:59;;;;;;;10.38;3.55;;;10.30;99.90;;;;;;5020383;28;20140;-77
2022/05/12 03:53:25;;;;;;;8.43;3.00;;;10.30;99.90;;;;;;5032031;28;20053;-77
2022/05/12 03:55:52;;;;;;;5.03;2.97;;;10.30;99.90;;;;;;5021416;28;20057;-76
2022/05/12 03:58:18;;;;;;;10.73;3.33;;;10.30;99.90;;;;;;5025717;28;20062;-77
2022/05/12 04:00:45;;;;;;;4.55;2.75;;;10.30;99.90;;;;;;5019831;28;20056;-76
2022/05/12 04:03:11;;;;;;;14.15;3.70;;;10.30;99.90;;;;;;5027997;28;20045;-77
2022/05/12 04:05:38;;;;;;;6.22;3.42;;;10.30;99.90;;;;;;5029894;28;20065;-76
2022/05/12 04:08:04;;;;;;;4.63;2.80;;;10.30;99.90;;;;;;5020842;28;20056;-77
2022/05/12 04:10:32;;;;;;;9.55;3.55;;;10.30;99.90;;;;;;5029773;28;20064;-80
2022/05/12 04:12:59;;;;;;;9.25;3.15;;;10.30;99.90;;;;;;5024978;28;20049;-77
2022/05/12 04:15:25;;;;;;;4.75;2.85;;;10.30;99.90;;;;;;5031142;28;20060;-77
2022/05/12 04:17:52;;;;;;;7.70;3.13;;;10.30;99.90;;;;;;5029241;28;20072;-76
2022/05/12 04:20:18;;;;;;;10.30;3.42;;;10.40;99.90;;;;;;5030318;28;20050;-77
2022/05/12 04:22:45;;;;;;;5.40;3.85;;;10.40;99.90;;;;;;5024093;28;20049;-77
2022/05/12 04:25:11;;;;;;;7.35;3.10;;;10.50;99.90;;;;;;5029570;28;20053;-77
2022/05/12 04:27:38;;;;;;;4.60;3.35;;;10.60;99.90;;;;;;5028858;28;20504;-77
2022/05/12 04:30:04;;;;;;;9.30;3.85;;;10.70;99.90;;;;;;5027850;28;20045;-76
2022/05/12 04:32:31;;;;;;;8.73;3.80;;;10.90;99.90;;;;;;5023171;28;20054;-81
2022/05/12 04:35:12;;;;;;;9.02;3.78;;;11.00;99.90;;;;;;5030826;28;20088;-76
2022/05/12 04:37:38;;;;;;;5.00;3.65;;;11.20;99.90;;;;;;5022433;28;20053;-76
2022/05/12 04:40:05;;;;;;;7.38;3.85;;;11.30;99.90;;;;;;5029529;28;20076;-77
2022/05/12 04:42:31;;;;;;;10.77;3.92;;;11.40;99.90;;;;;;5030688;28;20515;-79
2022/05/12 04:44:58;;;;;;;6.25;3.85;;;11.50;99.90;;;;;;5025699;28;20420;-77
2022/05/12 04:47:24;;;;;;;6.97;3.00;;;11.50;99.90;;;;;;5021732;28;20056;-76
2022/05/12 04:49:51;;;;;;;6.47;3.90;;;11.60;99.90;;;;;;5017234;28;20099;-78
2022/05/12 04:52:17;;;;;;;6.20;4.25;;;11.70;99.90;;;;;;5024701;28;20057;-77
2022/05/12 04:54:44;;;;;;;11.55;3.83;;;11.80;99.90;;;;;;5028234;28;20057;-79
2022/05/12 04:57:11;;;;;;;8.48;3.80;;;11.90;99.90;;;;;;5022081;28;20050;-77
2022/05/12 04:59:37;;;;;;;8.80;4.13;;;12.10;99.90;;;;;;5017362;28;20057;-77
2022/05/12 05:02:04;;;;;;;5.80;2.97;;;12.20;99.90;;;;;;5029900;28;20045;-77
2022/05/12 05:04:30;;;;;;;9.30;4.03;;;12.30;99.90;;;;;;5019293;28;20107;-76
2022/05/12 05:06:57;;;;;;;8.38;3.55;;;12.50;99.90;;;;;;5019766;28;20108;-77
2022/05/12 05:09:24;;;;;;;7.68;3.72;;;12.60;99.90;;;;;;5020826;28;20488;-77
2022/05/12 05:11:50;;;;;;;11.30;4.53;;;12.70;99.90;;;;;;5023390;28;20045;-77
2022/05/12 05:14:17;;;;;;;10.70;4.22;;;12.80;99.90;;;;;;5013907;28;20125;-77
2022/05/12 05:16:43;;;;;;;11.70;4.72;;;12.90;99.90;;;;;;5020704;28;20050;-77
2022/05/12 05:19:10;;;;;;;10.10;5.05;;;13.00;99.90;;;;;;5016846;28;20050;-78
2022/05/12 05:21:37;;;;;;;6.53;4.07;;;13.00;99.90;;;;;;5028501;28;20038;-80
2022/05/12 05:24:03;;;;;;;11.80;4.72;;;13.10;99.90;;;;;;5029465;28;20132;-77
2022/05/12 05:26:30;;;;;;;13.35;4.72;;;13.20;99.90;;;;;;5016786;28;20100;-77
2022/05/12 05:28:56;;;;;;;9.82;4.70;;;13.30;99.90;;;;;;5023107;28;20176;-76
2022/05/12 05:31:23;;;;;;;6.57;3.75;;;13.40;99.90;;;;;;5026825;28;20053;-76
2022/05/12 05:33:50;;;;;;;7.28;4.15;;;13.60;99.90;;;;;;5016614;28;20053;-77
2022/05/12 05:36:16;;;;;;;8.25;4.20;;;13.70;99.90;;;;;;5029828;28;20054;-77
2022/05/12 05:38:43;;;;;;;8.70;4.32;;;13.80;99.90;;;;;;5022138;28;20057;-76
2022/05/12 05:41:09;;;;;;;14.85;4.10;;;13.70;99.90;;;;;;5030976;28;20049;-77
2022/05/12 05:43:37;;;;;;;19.77;4.45;;;13.90;99.90;;;;;;5020514;28;20053;-76
2022/05/12 05:46:04;;;;;;;4.53;3.33;;;14.00;99.90;;;;;;5028304;28;20060;-76
2022/05/12 05:48:31;;;;;;;10.57;4.20;;;14.20;99.90;;;;;;5031337;28;20056;-76
2022/05/12 05:53:42;;;;;;;9.70;4.32;;;14.30;99.90;;;;;;5028640;28;20132;-77
2022/05/12 05:56:11;;;;;;;9.05;3.35;;;14.40;99.90;;;;;;5028286;28;20108;-77
2022/05/12 05:58:39;;;;;;;8.05;3.45;;;14.50;99.90;;;;;;5029606;28;20061;-81
2022/05/12 06:01:06;;;;;;;9.55;4.40;;;14.60;99.90;;;;;;5029488;28;20477;-80
2022/05/12 06:03:32;;;;;;;10.45;3.92;;;14.80;99.90;;;;;;5027979;28;20073;-80
2022/05/12 06:05:59;;;;;;;8.63;3.30;;;15.00;99.90;;;;;;5028453;28;20059;-79
2022/05/12 06:08:25;;;;;;;7.90;3.95;;;15.10;99.90;;;;;;5029150;28;20053;-79
2022/05/12 06:10:52;;;;;;;8.57;3.40;;;15.20;99.90;;;;;;5027766;28;20046;-79
2022/05/12 06:13:19;;;;;;;7.80;4.15;;;15.30;99.90;;;;;;5017127;28;20050;-81
2022/05/12 06:15:45;;;;;;;10.88;4.13;;;15.30;99.90;;;;;;5021230;28;20046;-79
2022/05/12 06:18:12;;;;;;;8.70;3.47;;;15.50;99.90;;;;;;5017812;28;20054;-80
2022/05/12 06:20:40;;;;;;;10.55;5.07;;;15.60;99.90;;;;;;5031830;28;20042;-79
2022/05/12 06:23:06;;;;;;;15.55;4.25;;;15.70;99.90;;;;;;5023713;28;20473;-80
2022/05/12 06:25:33;;;;;;;7.38;3.40;;;15.80;99.90;;;;;;5020678;28;20061;-81
2022/05/12 06:27:59;;;;;;;12.10;3.20;;;15.90;99.90;;;;;;5023781;28;20056;-79
2022/05/12 06:30:27;;;;;;;8.48;4.03;;;16.10;99.90;;;;;;5020152;28;20049;-80
2022/05/12 06:32:56;;;;;;;11.32;3.55;;;16.10;99.90;;;;;;5019240;28;20522;-80
2022/05/12 06:35:22;;;;;;;6.63;3.13;;;16.20;99.90;;;;;;5021775;28;20138;-80
2022/05/12 06:37:49;;;;;;;8.45;3.28;;;16.20;99.90;;;;;;5015445;28;20046;-80
2022/05/12 06:40:16;;;;;;;7.40;3.75;;;16.40;99.90;;;;;;5015383;28;20045;-80
2022/05/12 06:42:43;;;;;;;9.68;4.07;;;16.40;99.90;;;;;;5023820;28;20056;-83
2022/05/12 06:45:09;;;;;;;4.65;3.42;;;16.40;99.90;;;;;;5017034;28;20050;-81
2022/05/12 06:47:36;;;;;;;8.50;3.03;;;16.40;99.90;;;;;;5016926;28;20431;-81
2022/05/12 06:50:03;;;;;;;4.90;3.28;;;16.60;99.90;;;;;;5023586;28;20053;-80
2022/05/12 06:52:29;;;;;;;6.72;3.03;;;16.60;99.90;;;;;;5018671;28;20092;-79
2022/05/12 06:54:56;;;;;;;8.88;4.55;;;16.50;99.90;;;;;;5020701;28;20076;-81
2022/05/12 06:57:22;;;;;;;5.00;3.67;;;16.60;99.90;;;;;;5021684;28;20081;-81
2022/05/12 06:59:49;;;;;;;7.07;3.88;;;16.60;99.90;;;;;;5015287;28;20108;-81
2022/05/12 07:02:15;;;;;;;7.10;4.75;;;16.60;99.90;;;;;;5022497;28;20060;-81
2022/05/12 07:04:45;;;;;;;8.48;3.35;;;16.70;99.90;;;;;;5020838;28;20057;-81
2022/05/12 07:07:12;;;;;;;11.80;4.88;;;16.70;99.90;;;;;;5020732;28;20045;-79
2022/05/12 07:09:38;;;;;;;9.00;3.28;;;16.80;99.90;;;;;;5027785;28;20056;-81
2022/05/12 07:12:05;;;;;;;6.78;2.85;;;16.90;99.90;;;;;;5024665;28;20382;-79
2022/05/12 07:14:31;;;;;;;10.32;3.40;;;17.00;99.90;;;;;;5023309;28;20527;-79
2022/05/12 07:16:58;;;;;;;8.27;3.28;;;17.10;99.90;;;;;;5019836;28;20401;-79
2022/05/12 07:19:25;;;;;;;3.30;2.78;;;17.10;99.90;;;;;;5020734;28;20054;-79
2022/05/12 07:27:34;;;;;;;7.85;3.28;;;17.20;99.90;;;;;;4964713;28;20495;-80
2022/05/12 07:30:01;;;;;;;7.53;3.30;;;17.30;99.90;;;;;;4948487;28;20047;-79
2022/05/12 07:32:27;;;;;;;6.93;3.38;;;17.30;99.90;;;;;;4982648;28;20041;-80
2022/05/12 07:34:54;;;;;;;8.98;4.35;;;17.40;99.90;;;;;;5019189;28;20045;-80
2022/05/12 07:37:20;;;;;;;9.63;3.75;;;17.50;99.90;;;;;;5019375;28;20108;-80
2022/05/12 07:39:47;;;;;;;6.38;3.15;;;17.60;99.90;;;;;;5021476;28;20408;-83
2022/05/12 07:42:13;;;;;;;11.35;3.80;;;17.60;99.90;;;;;;5018463;28;20050;-79
2022/05/12 07:44:40;;;;;;;9.10;3.83;;;17.70;99.90;;;;;;5017345;28;20054;-80
2022/05/12 07:47:07;;;;;;;12.43;3.25;;;17.70;99.90;;;;;;5019864;28;20104;-80
2022/05/12 07:49:35;;;;;;;5.05;3.17;;;17.90;99.90;;;;;;5017712;28;20528;-80
2022/05/12 07:52:02;;;;;;;8.10;2.58;;;17.90;99.90;;;;;;5023213;28;20492;-80
2022/05/12 07:54:28;;;;;;;3.25;2.83;;;18.00;99.90;;;;;;5023022;28;20088;-80
2022/05/12 07:56:55;;;;;;;7.63;3.75;;;18.10;99.90;;;;;;5016957;28;20053;-80
2022/05/12 07:59:21;;;;;;;7.63;2.70;;;18.10;99.90;;;;;;5020062;28;20045;-80
2022/05/12 08:01:48;;;;;;;3.78;2.30;;;17.90;99.90;;;;;;5022186;28;20046;-83
2022/05/12 08:04:15;;;;;;;4.65;2.45;;;18.20;99.90;;;;;;5020266;28;20076;-79
2022/05/12 08:06:44;;;;;;;6.80;2.80;;;18.20;99.90;;;;;;5019202;28;20128;-79
2022/05/12 08:09:11;;;;;;;10.75;3.08;;;18.20;99.90;;;;;;5018295;28;20297;-80
2022/05/12 08:11:37;;;;;;;7.53;2.80;;;18.30;99.90;;;;;;5016273;28;20050;-80
2022/05/12 08:14:04;;;;;;;4.68;2.10;;;18.40;99.90;;;;;;5015829;28;20385;-80
2022/05/12 08:16:30;;;;;;;11.27;2.22;;;18.70;99.90;;;;;;5022700;28;20049;-81
2022/05/12 08:18:57;;;;;;;9.48;2.22;;;18.80;97.40;;;;;;5016247;28;20399;-80
2022/05/12 08:21:24;;;;;;;8.43;1.98;;;18.90;97.60;;;;;;5019852;28;21302;-81
2022/05/12 08:23:50;;;;;;;6.47;2.08;;;18.90;95.50;;;;;;5021137;28;20088;-84
2022/05/12 08:26:17;;;;;;;6.03;2.53;;;18.90;94.60;;;;;;5020121;28;20056;-80
2022/05/12 08:28:44;;;;;;;6.45;3.08;;;18.70;95.70;;;;;;5024514;28;20045;-80
2022/05/12 08:31:10;;;;;;;5.32;1.80;;;18.90;95.70;;;;;;5016972;28;20056;-79
2022/05/12 08:33:37;;;;;;;4.93;2.25;;;19.00;95.10;;;;;;5018396;28;20105;-81
2022/05/12 08:36:03;;;;;;;6.50;1.88;;;19.10;94.80;;;;;;5026683;28;20069;-79
2022/05/12 08:38:30;;;;;;;3.83;2.05;;;19.10;95.30;;;;;;5018264;28;20051;-80
2022/05/12 08:40:57;;;;;;;6.20;1.63;;;19.30;93.70;;;;;;5026815;28;20041;-80
2022/05/12 08:43:24;;;;;;;5.05;1.83;;;19.30;93.40;;;;;;5019928;28;20049;-80
2022/05/12 08:45:52;;;;;;;3.80;1.45;;;19.10;92.50;;;;;;5016353;28;20052;-79
2022/05/12 08:48:19;;;;;;;4.57;1.65;;;19.00;91.60;;;;;;5021188;28;20057;-80
2022/05/12 08:50:45;;;;;;;3.92;1.58;;;18.70;91.00;;;;;;5019179;28;20050;-80
2022/05/12 08:53:12;;;;;;;4.72;1.80;;;18.60;91.00;;;;;;5017587;28;20042;-81
2022/05/12 08:55:38;;;;;;;3.13;1.70;;;18.70;92.50;;;;;;5014355;28;20054;-80
2022/05/12 08:58:05;;;;;;;1.77;1.20;;;18.80;91.70;;;;;;5016327;28;20061;-79
2022/05/12 09:00:32;;;;;;;2.58;1.67;;;18.70;90.50;;;;;;5022430;28;20046;-80
2022/05/12 09:02:58;;;;;;;4.70;1.45;;;18.70;90.10;;;;;;5013957;28;20045;-80
2022/05/12 09:05:25;;;;;;;6.85;2.05;;;18.70;90.30;;;;;;5028718;28;20060;-79
2022/05/12 09:07:51;;;;;;;4.15;1.83;;;18.60;90.60;;;;;;5015948;28;20485;-84
2022/05/12 09:10:18;;;;;;;4.35;2.17;;;18.70;90.80;;;;;;5014165;28;20595;-80
2022/05/12 09:12:45;;;;;;;6.88;2.08;;;18.70;89.50;;;;;;5013967;28;20493;-80
2022/05/12 09:15:11;;;;;;;4.20;1.98;;;18.80;90.30;;;;;;5021498;28;20612;-80
2022/05/12 09:17:39;;;;;;;6.28;1.45;;;18.80;90.40;;;;;;5021634;28;20406;-80
2022/05/12 09:20:05;;;;;;;4.28;2.00;;;18.70;87.80;;;;;;5024309;28;20141;-80
2022/05/12 09:22:32;;;;;;;3.35;1.40;;;18.80;89.70;;;;;;5015029;28;20791;-80
2022/05/12 09:24:59;;;;;;;4.32;1.45;;;18.90;90.70;;;;;;5014170;28;20057;-81
2022/05/12 09:27:25;;;;;;;4.00;1.95;;;19.10;90.30;;;;;;5024841;28;20068;-80
2022/05/12 09:29:52;;;;;;;2.65;1.55;;;19.10;85.60;;;;;;5020165;28;20045;-80
2022/05/12 09:32:19;;;;;;;5.90;1.65;;;19.20;84.30;;;;;;5017793;28;20057;-80
2022/05/12 09:34:46;;;;;;;7.13;1.95;;;19.30;84.90;;;;;;5020441;28;20451;-80
2022/05/12 09:37:13;;;;;;;5.25;1.77;;;19.10;84.70;;;;;;5025897;28;20112;-81
2022/05/12 09:39:39;;;;;;;4.43;1.48;;;18.90;84.30;;;;;;5015110;28;20056;-81
2022/05/12 09:42:06;;;;;;;4.43;1.70;;;18.60;86.20;;;;;;5021915;28;20061;-80
2022/05/12 09:44:32;;;;;;;8.25;1.48;;;18.60;86.40;;;;;;5023424;28;20515;-80
2022/05/12 09:46:59;;;;;;;5.65;1.70;;;18.60;85.30;;;;;;5015522;28;20053;-83
2022/05/12 09:49:26;;;;;;;4.53;1.70;;;18.60;82.90;;;;;;5023511;28;20497;-81
2022/05/12 09:51:53;;;;;;;6.50;1.90;;;18.50;82.70;;;;;;5024618;28;20049;-80
2022/05/12 09:54:19;;;;;;;6.93;1.50;;;18.50;82.60;;;;;;5017678;28;20119;-80
2022/05/12 09:56:46;;;;;;;3.70;1.77;;;18.50;82.50;;;;;;5016903;28;20053;-80
2022/05/12 09:59:13;;;;;;;4.28;1.90;;;18.30;82.60;;;;;;5026208;28;20057;-80
2022/05/12 10:01:39;;;;;;;5.30;1.65;;;18.30;86.20;;;;;;5024781;28;20061;-81
2022/05/12 10:09:35;;;;;;;6.22;1.65;;;18.50;85.70;;;;;;5021855;28;20050;-82
2022/05/12 10:12:02;;;;;;;5.57;2.20;;;18.60;85.40;;;;;;5019156;28;20053;-81
2022/05/12 10:14:28;;;;;;;3.60;1.52;;;18.40;84.90;;;;;;5022463;28;20065;-80
2022/05/12 10:16:55;;;;;;;7.68;1.92;;;18.30;86.30;;;;;;5020706;28;20503;-80
2022/05/12 10:19:22;;;;;;;3.45;1.65;;;18.40;85.70;;;;;;5029826;28;20053;-79
2022/05/12 10:21:48;;;;;;;4.95;1.95;;;18.40;86.80;;;;;;5022406;28;20060;-79
2022/05/12 10:24:15;;;;;;;4.47;2.03;;;18.50;84.80;;;;;;5029928;28;20397;-81
2022/05/12 10:26:41;;;;;;;5.05;2.00;;;18.50;83.90;;;;;;5016120;28;20060;-79
2022/05/12 10:29:08;;;;;;;2.30;2.05;;;18.50;85.60;;;;;;5015398;28;20096;-80
2022/05/12 10:31:35;;;;;;;4.88;1.60;;;18.60;85.80;;;;;;5023538;28;20084;-81
2022/05/12 10:34:01;;;;;;;7.10;2.22;;;18.40;83.20;;;;;;5021986;28;20104;-83
2022/05/12 10:36:28;;;;;;;5.80;1.90;;;18.30;83.90;;;;;;5020201;28;20042;-81
2022/05/12 10:38:55;;;;;;;4.68;1.90;;;18.40;85.20;;;;;;5018598;28;20084;-80
2022/05/12 10:41:21;;;;;;;5.20;2.22;;;18.40;86.20;;;;;;5014971;28;20038;-80
2022/05/12 10:43:48;;;;;;;3.33;1.85;;;18.50;86.60;;;;;;5014394;28;20054;-80
2022/05/12 10:46:14;;;;;;;7.88;2.33;;;18.70;83.70;;;;;;5014424;28;20053;-81
2022/05/12 10:48:41;;;;;;;5.28;1.50;;;18.80;83.30;;;;;;5015949;28;20053;-81
2022/05/12 10:51:07;;;;;;;1.40;1.23;;;19.00;80.40;;;;;;5017242;28;20049;-81
2022/05/12 10:53:34;;;;;;;4.53;1.25;;;18.90;81.00;;;;;;5018698;28;20050;-81
2022/05/12 10:56:00;;;;;;;3.90;1.67;;;18.90;77.50;;;;;;5012094;28;20049;-81
2022/05/12 10:58:28;;;;;;;4.18;1.70;;;18.70;75.90;;;;;;5023648;28;20050;-81
2022/05/12 11:00:55;;;;;;;8.15;1.52;;;18.60;77.70;;;;;;5012876;28;20042;-81
2022/05/12 11:03:22;;;;;;;4.25;1.83;;;18.60;76.30;;;;;;5011750;28;20050;-81
2022/05/12 11:05:48;;;;;;;2.65;1.45;;;18.50;75.00;;;;;;5012374;28;20050;-79
2022/05/12 11:08:15;;;;;;;4.70;1.48;;;18.60;75.30;;;;;;5023733;28;20046;-81
2022/05/12 11:10:41;;;;;;;2.22;1.10;;;18.70;74.30;;;;;;5022477;28;20045;-79
2022/05/12 11:13:08;;;;;;;2.22;1.20;;;18.90;73.80;;;;;;5026432;28;20481;-81
2022/05/12 11:15:34;;;;;;;1.98;1.02;;;19.10;72.70;;;;;;5032043;28;20045;-80
2022/05/12 11:18:04;;;;;;;1.70;1.42;;;19.20;72.20;;;;;;5019283;28;20045;-80
2022/05/12 11:20:32;;;;;;;4.05;1.27;;;19.20;70.30;;;;;;5030738;28;20503;-80
2022/05/12 11:22:58;;;;;;;2.92;1.08;;;19.10;70.40;;;;;;5023976;28;20042;-80
2022/05/12 11:25:25;;;;;;;5.38;1.88;;;19.00;70.90;;;;;;5027027;28;20053;-80
2022/05/12 11:27:51;;;;;;;3.22;1.30;;;18.90;70.50;;;;;;5032196;28;20050;-79
2022/05/12 11:30:18;;;;;;;3.75;1.25;;;18.90;71.00;;;;;;5022849;28;20049;-80
2022/05/12 11:32:44;;;;;;;4.20;1.00;;;19.00;70.10;;;;;;5031748;28;20049;-80
2022/05/12 11:35:11;;;;;;;4.85;1.30;;;19.00;67.70;;;;;;5020189;28;20484;-81
2022/05/12 11:37:37;;;;;;;4.35;1.33;;;18.80;69.60;;;;;;5028198;28;20531;-80
2022/05/12 11:40:04;;;;;;;4.80;1.20;;;18.90;68.10;;;;;;5029618;28;20477;-80
2022/05/12 11:44:23;;;;;;;4.00;1.70;;;19.00;68.00;;;;;;5021842;28;20046;-80
2022/05/12 11:45:17;;;;;;;5.47;1.48;;;19.10;68.20;;;;;;5030565;28;20049;-80
2022/05/12 11:47:44;;;;;;;0.90;0.90;;;19.10;68.00;;;;;;5028232;28;20057;-81
2022/05/12 11:50:13;;;;;;;5.07;1.45;;;19.00;64.20;;;;;;5030228;28;20094;-80
2022/05/12 11:52:40;;;;;;;5.18;1.73;;;18.80;66.20;;;;;;5030996;28;20056;-80
2022/05/12 11:55:07;;;;;;;4.35;1.25;;;18.70;66.10;;;;;;5031419;28;20132;-79
2022/05/12 11:57:34;;;;;;;1.73;1.30;;;18.60;66.10;;;;;;5029074;28;20049;-80
2022/05/12 12:00:01;;;;;;;1.98;0.77;;;18.60;67.20;;;;;;5030591;28;20045;-81
2022/05/12 12:02:27;;;;;;;5.53;1.50;;;18.50;67.00;;;;;;5028861;28;20790;-79
2022/05/12 12:04:54;;;;;;;1.42;1.33;;;18.60;66.30;;;;;;5026545;28;20045;-79
2022/05/12 12:07:21;;;;;;;2.47;1.58;;;18.60;64.50;;;;;;5017538;28;20050;-78
2022/05/12 12:09:47;;;;;;;5.20;1.77;;;18.70;65.00;;;;;;5026704;28;20061;-79
2022/05/12 12:12:14;;;;;;;3.63;1.27;;;18.80;64.60;;;;;;5021542;28;20052;-79
2022/05/12 12:14:40;;;;;;;5.63;1.02;;;19.00;65.60;;;;;;5030653;28;20045;-79
2022/05/12 12:17:07;;;;;;;3.00;1.00;;;19.10;66.10;;;;;;5023776;28;20061;-79
2022/05/12 12:19:33;;;;;;;4.65;1.60;;;19.10;66.20;;;;;;5025763;28;20404;-79
2022/05/12 12:22:00;;;;;;;3.05;0.95;;;19.00;65.60;;;;;;5026387;28;20042;-78
2022/05/12 12:24:27;;;;;;;5.15;1.42;;;19.00;67.50;;;;;;5010696;28;20059;-80
2022/05/12 12:26:55;;;;;;;3.58;1.40;;;19.20;66.90;;;;;;5029151;28;20119;-80
2022/05/12 12:29:22;;;;;;;3.08;0.95;;;19.30;67.10;;;;;;5021924;28;20053;-80
2022/05/12 12:31:49;;;;;;;5.03;2.25;;;19.40;66.70;;;;;;5026304;28;20120;-79
2022/05/12 12:34:15;;;;;;;1.17;0.73;;;19.40;66.20;;;;;;5015218;28;20058;-79
2022/05/12 12:36:42;;;;;;;1.95;1.48;;;19.30;65.50;;;;;;5021814;28;20055;-81
2022/05/12 12:39:09;;;;;;;3.22;1.27;;;19.20;65.90;;;;;;5014568;28;20050;-80
2022/05/12 12:41:35;;;;;;;7.97;1.35;;;19.20;66.40;;;;;;5015112;28;20053;-80
2022/05/12 12:44:03;;;;;;;4.10;1.33;;;19.30;64.50;;;;;;5015238;28;20116;-80
2022/05/12 12:46:30;;;;;;;2.33;1.27;;;19.20;65.60;;;;;;5017043;28;20049;-81
2022/05/12 12:48:56;;;;;;;4.20;1.00;;;19.20;65.90;;;;;;5016419;28;20053;-80
2022/05/12 12:51:23;;;;;;;4.32;1.05;;;19.30;64.70;;;;;;5016701;28;20049;-80
2022/05/12 12:56:35;;;;;;;1.95;1.25;;;19.60;63.70;;;;;;5018891;28;20103;-80
2022/05/12 12:59:02;;;;;;;2.03;1.10;;;19.50;60.90;;;;;;5021410;28;20055;-81
2022/05/12 13:01:29;;;;;;;1.35;1.25;;;19.30;62.80;;;;;;5022944;28;20054;-80